Time;durP1;ratioP1;P1;durP2;ratioP2;P2;SDS_P1;SDS_P2;PMS_P1;PMS_P2;Temp;Humidity;BMP_temperature;BMP_pressure;BME280_temperature;BME280_humidity;BME280_pressure;Samples;Min_cycle;Max_cycle;Signal;HPM_P1;HPM_P2
2022/04/13 00:01:56;;;;;;;9.27;5.60;;;9.90;99.90;;;;;;5012174;28;20446;-55
2022/04/13 00:04:22;;;;;;;8.87;5.17;;;9.90;99.90;;;;;;5009004;28;20646;-55
2022/04/13 00:06:48;;;;;;;9.00;5.40;;;9.80;99.90;;;;;;5009290;28;20219;-56
2022/04/13 00:09:13;;;;;;;8.00;5.37;;;9.80;99.90;;;;;;5009903;28;20252;-54
2022/04/13 00:11:39;;;;;;;5.70;4.67;;;9.80;99.90;;;;;;5006395;28;20618;-53
2022/04/13 00:14:05;;;;;;;7.40;4.90;;;9.70;99.90;;;;;;5007506;28;20264;-55
2022/04/13 00:16:30;;;;;;;7.23;5.27;;;9.70;99.90;;;;;;5008108;28;20287;-57
2022/04/13 00:18:56;;;;;;;7.87;4.93;;;9.70;99.90;;;;;;5009249;28;20180;-55
2022/04/13 00:21:22;;;;;;;7.20;4.83;;;9.70;99.90;;;;;;5007659;28;20744;-54
2022/04/13 00:26:13;;;;;;;7.43;5.03;;;9.60;99.90;;;;;;5040036;22;20242;-61
2022/04/13 00:28:38;;;;;;;7.40;5.50;;;9.60;99.90;;;;;;5028360;28;20219;-61
2022/04/13 00:31:04;;;;;;;8.10;4.40;;;9.60;99.90;;;;;;5027895;28;20168;-62
2022/04/13 00:33:30;;;;;;;6.20;4.40;;;9.50;99.90;;;;;;5009956;28;20264;-62
2022/04/13 00:35:56;;;;;;;9.37;4.50;;;9.50;99.90;;;;;;5022128;28;20204;-62
2022/04/13 00:38:22;;;;;;;9.37;4.40;;;9.50;99.90;;;;;;5010213;28;20200;-62
2022/04/13 00:40:50;;;;;;;5.73;4.17;;;9.50;99.90;;;;;;5004836;28;20428;-61
2022/04/13 00:43:16;;;;;;;5.80;4.53;;;9.40;99.90;;;;;;4989138;28;21034;-62
2022/04/13 00:45:46;;;;;;;9.17;4.50;;;9.40;99.90;;;;;;5017700;28;20438;-62
2022/04/13 00:48:34;;;;;;;6.10;4.10;;;9.30;99.90;;;;;;5013399;28;20698;-61
2022/04/13 00:51:00;;;;;;;5.77;4.60;;;9.30;99.90;;;;;;5011288;28;20427;-62
2022/04/13 00:53:26;;;;;;;6.43;4.60;;;9.30;99.90;;;;;;4991214;28;20427;-62
2022/04/13 00:55:57;;;;;;;5.97;4.57;;;9.30;99.90;;;;;;5009489;28;20223;-62
2022/04/13 00:58:27;;;;;;;8.90;5.13;;;9.20;99.90;;;;;;5008836;28;20440;-62
2022/04/13 01:00:54;;;;;;;5.37;4.63;;;9.20;99.90;;;;;;5007819;28;20465;-61
2022/04/13 01:03:22;;;;;;;8.27;5.13;;;9.20;99.90;;;;;;5016186;28;20462;-62
2022/04/13 01:05:49;;;;;;;7.33;5.10;;;9.20;99.90;;;;;;5028813;28;20507;-62
2022/04/13 01:08:17;;;;;;;8.23;5.60;;;9.20;99.90;;;;;;5003612;28;20470;-62
2022/04/13 01:10:44;;;;;;;7.67;5.20;;;9.20;99.90;;;;;;5013892;28;20421;-62
2022/04/13 01:13:10;;;;;;;9.17;5.30;;;9.10;99.90;;;;;;5006735;28;20827;-61
2022/04/13 01:15:36;;;;;;;7.40;4.90;;;9.10;99.90;;;;;;5016131;28;20431;-61
2022/04/13 01:18:03;;;;;;;9.37;5.27;;;9.20;99.90;;;;;;4983445;28;20440;-61
2022/04/13 01:20:29;;;;;;;5.87;4.80;;;9.10;99.90;;;;;;4991541;28;20448;-62
2022/04/13 01:22:55;;;;;;;7.53;4.90;;;9.10;99.90;;;;;;5012902;28;20462;-62
2022/04/13 01:25:21;;;;;;;9.43;5.23;;;9.10;99.90;;;;;;4991650;28;20496;-61
2022/04/13 01:27:46;;;;;;;5.50;4.40;;;9.10;99.90;;;;;;4992373;28;20192;-62
2022/04/13 01:30:13;;;;;;;10.30;5.10;;;9.10;99.90;;;;;;5004869;28;20179;-61
2022/04/13 01:32:39;;;;;;;8.70;5.50;;;9.10;99.90;;;;;;5006036;28;20181;-61
2022/04/13 01:35:06;;;;;;;7.93;4.60;;;9.10;99.90;;;;;;5013852;28;20533;-61
2022/04/13 01:37:32;;;;;;;9.17;5.13;;;9.00;99.90;;;;;;4997012;28;20181;-61
2022/04/13 01:39:58;;;;;;;7.00;5.20;;;9.00;99.90;;;;;;5012576;28;20429;-61
2022/04/13 01:42:24;;;;;;;6.70;4.40;;;9.00;99.90;;;;;;5016761;28;20438;-62
2022/04/13 01:44:50;;;;;;;7.37;4.63;;;8.90;99.90;;;;;;5020317;28;20450;-61
2022/04/13 01:47:15;;;;;;;6.60;4.73;;;8.90;99.90;;;;;;5016542;28;20565;-61
2022/04/13 01:49:41;;;;;;;6.10;4.63;;;8.90;99.90;;;;;;5018509;28;20176;-62
2022/04/13 01:52:09;;;;;;;10.80;4.80;;;8.80;99.90;;;;;;5003771;28;20172;-62
2022/04/13 01:54:35;;;;;;;8.20;5.07;;;8.80;99.90;;;;;;5010492;28;20483;-62
2022/04/13 01:57:01;;;;;;;8.30;5.23;;;8.80;99.90;;;;;;5022111;28;20525;-61
2022/04/13 01:59:27;;;;;;;8.80;4.50;;;8.80;99.90;;;;;;5019455;28;20584;-61
2022/04/13 02:01:53;;;;;;;8.30;4.90;;;8.70;99.90;;;;;;5024127;28;20180;-61
2022/04/13 02:04:21;;;;;;;6.10;4.77;;;8.70;99.90;;;;;;4999114;28;20926;-61
2022/04/13 02:06:47;;;;;;;8.03;5.00;;;8.70;99.90;;;;;;4993374;28;20223;-60
2022/04/13 02:09:14;;;;;;;7.03;4.80;;;8.70;99.90;;;;;;5003858;28;20954;-61
2022/04/13 02:11:40;;;;;;;9.20;5.17;;;8.70;99.90;;;;;;4997759;28;20428;-61
2022/04/13 02:14:06;;;;;;;6.07;4.60;;;8.60;99.90;;;;;;5009579;28;20434;-61
2022/04/13 02:16:32;;;;;;;7.37;5.03;;;8.70;99.90;;;;;;4975427;28;20184;-61
2022/04/13 02:18:58;;;;;;;6.83;4.93;;;8.70;99.90;;;;;;4987620;28;20426;-61
2022/04/13 02:21:23;;;;;;;7.73;4.40;;;8.70;99.90;;;;;;5002916;28;20327;-61
2022/04/13 02:23:49;;;;;;;7.03;4.53;;;8.70;99.90;;;;;;5004164;28;20207;-61
2022/04/13 02:26:15;;;;;;;8.07;5.40;;;8.70;99.90;;;;;;5011452;28;20555;-62
2022/04/13 02:28:42;;;;;;;6.90;4.77;;;8.70;99.90;;;;;;5011494;28;20220;-61
2022/04/13 02:31:07;;;;;;;9.57;4.10;;;8.60;99.90;;;;;;4998787;28;20428;-61
2022/04/13 02:33:33;;;;;;;5.00;4.40;;;8.60;99.90;;;;;;5014502;28;20436;-61
2022/04/13 02:35:59;;;;;;;9.27;5.27;;;8.60;99.90;;;;;;5012018;28;20669;-61
2022/04/13 02:38:25;;;;;;;5.90;4.77;;;8.50;99.90;;;;;;4985683;28;20231;-61
2022/04/13 02:40:52;;;;;;;6.00;4.03;;;8.50;99.90;;;;;;5015137;28;20196;-61
2022/04/13 02:43:18;;;;;;;6.90;4.57;;;8.40;99.90;;;;;;4988913;28;20440;-61
2022/04/13 02:45:43;;;;;;;9.23;5.00;;;8.40;99.90;;;;;;5015316;28;20509;-61
2022/04/13 02:48:11;;;;;;;7.93;4.97;;;8.30;99.90;;;;;;5024235;28;20258;-61
2022/04/13 02:50:37;;;;;;;6.40;4.47;;;8.30;99.90;;;;;;5003994;28;20177;-61
2022/04/13 02:53:03;;;;;;;4.93;4.10;;;8.30;99.90;;;;;;4992723;28;20471;-62
2022/04/13 02:55:29;;;;;;;5.00;4.10;;;8.30;99.90;;;;;;4985476;28;20701;-61
2022/04/13 02:57:55;;;;;;;11.77;5.80;;;8.30;99.90;;;;;;4998775;28;20185;-61
2022/04/13 03:00:21;;;;;;;7.53;4.93;;;8.20;99.90;;;;;;4995838;28;20419;-61
2022/04/13 03:02:47;;;;;;;11.77;4.93;;;8.10;99.90;;;;;;4984189;28;20525;-61
2022/04/13 03:05:12;;;;;;;5.43;4.70;;;8.20;99.90;;;;;;5014593;28;20529;-61
2022/04/13 03:07:38;;;;;;;7.10;4.90;;;8.10;99.90;;;;;;5005440;28;20196;-61
2022/04/13 03:10:04;;;;;;;6.40;4.73;;;8.10;99.90;;;;;;5018071;28;20173;-63
2022/04/13 03:12:32;;;;;;;9.30;5.17;;;8.10;99.90;;;;;;4993818;28;20252;-62
2022/04/13 03:14:58;;;;;;;7.23;4.40;;;8.20;99.90;;;;;;5017560;28;21187;-62
2022/04/13 03:17:24;;;;;;;7.60;4.60;;;8.10;99.90;;;;;;4994901;28;20464;-61
2022/04/13 03:19:49;;;;;;;12.57;4.90;;;8.10;99.90;;;;;;4974502;28;20267;-63
2022/04/13 03:22:15;;;;;;;6.90;4.50;;;8.00;99.90;;;;;;4998078;28;20176;-61
2022/04/13 03:24:40;;;;;;;6.43;4.87;;;8.00;99.90;;;;;;5016766;28;20231;-62
2022/04/13 03:27:06;;;;;;;7.70;4.30;;;8.00;99.90;;;;;;5006484;28;20193;-61
2022/04/13 03:29:32;;;;;;;5.77;4.60;;;7.90;99.90;;;;;;5011437;28;20185;-62
2022/04/13 03:31:58;;;;;;;9.20;4.67;;;7.90;99.90;;;;;;5008780;28;20200;-61
2022/04/13 03:34:24;;;;;;;8.60;4.43;;;7.90;99.90;;;;;;5003780;28;20239;-62
2022/04/13 03:36:50;;;;;;;8.73;4.47;;;7.80;99.90;;;;;;5020750;28;20414;-62
2022/04/13 03:39:16;;;;;;;9.23;4.83;;;7.80;99.90;;;;;;5010070;28;20427;-60
2022/04/13 03:41:43;;;;;;;6.00;4.60;;;7.80;99.90;;;;;;5004926;28;20523;-61
2022/04/13 03:44:09;;;;;;;6.40;4.40;;;7.70;99.90;;;;;;5011969;28;20777;-61
2022/04/13 03:46:34;;;;;;;6.63;4.20;;;7.70;99.90;;;;;;5003372;28;20433;-61
2022/04/13 03:49:00;;;;;;;6.30;4.13;;;7.60;99.90;;;;;;5011009;28;20462;-61
2022/04/13 03:51:26;;;;;;;7.10;5.13;;;7.60;99.90;;;;;;5003902;28;20240;-63
2022/04/13 03:53:52;;;;;;;8.13;4.77;;;7.60;99.90;;;;;;4995535;28;20957;-61
2022/04/13 03:56:18;;;;;;;6.27;4.53;;;7.50;99.90;;;;;;5013897;28;20434;-61
2022/04/13 03:58:44;;;;;;;7.20;5.00;;;7.50;99.90;;;;;;5015660;28;20435;-61
2022/04/13 04:01:10;;;;;;;8.93;5.47;;;7.50;99.90;;;;;;5003359;28;20237;-61
2022/04/13 04:03:36;;;;;;;8.47;5.30;;;7.50;99.90;;;;;;4992729;28;20438;-62
2022/04/13 04:06:03;;;;;;;9.97;5.30;;;7.50;99.90;;;;;;4998298;28;20448;-62
2022/04/13 04:08:29;;;;;;;8.17;4.87;;;7.50;99.90;;;;;;4995306;28;20460;-60
2022/04/13 04:10:55;;;;;;;10.57;5.20;;;7.50;99.90;;;;;;4998081;28;20432;-61
2022/04/13 04:13:21;;;;;;;6.50;5.10;;;7.50;99.90;;;;;;4989244;28;20522;-63
2022/04/13 04:15:47;;;;;;;10.13;5.70;;;7.50;99.90;;;;;;4998196;28;20575;-62
2022/04/13 04:18:13;;;;;;;10.53;6.13;;;7.50;99.90;;;;;;5005888;28;20173;-63
2022/04/13 04:20:38;;;;;;;9.77;5.73;;;7.40;99.90;;;;;;4993572;28;20184;-62
2022/04/13 04:23:04;;;;;;;7.60;5.50;;;7.40;99.90;;;;;;4991162;28;20207;-62
2022/04/13 04:25:30;;;;;;;12.73;6.00;;;7.40;99.90;;;;;;4996763;28;20230;-62
2022/04/13 04:27:56;;;;;;;7.90;5.60;;;7.40;99.90;;;;;;4996873;28;20207;-62
2022/04/13 04:30:22;;;;;;;15.87;5.53;;;7.30;99.90;;;;;;5001499;28;20178;-62
2022/04/13 04:32:47;;;;;;;7.07;4.77;;;7.30;99.90;;;;;;4996229;28;20251;-62
2022/04/13 04:35:13;;;;;;;7.10;4.93;;;7.30;99.90;;;;;;4987275;28;20991;-63
2022/04/13 04:37:39;;;;;;;9.50;5.57;;;7.20;99.90;;;;;;4993803;28;20176;-62
2022/04/13 04:40:05;;;;;;;8.90;6.30;;;7.20;99.90;;;;;;4996660;28;20180;-63
2022/04/13 04:42:31;;;;;;;10.93;7.20;;;7.20;99.90;;;;;;4991161;28;20208;-62
2022/04/13 04:44:59;;;;;;;13.43;6.30;;;7.20;99.90;;;;;;4982277;28;20533;-62
2022/04/13 04:47:26;;;;;;;9.17;5.70;;;7.20;99.90;;;;;;5000058;28;20212;-62
2022/04/13 04:49:52;;;;;;;8.57;6.00;;;7.10;99.90;;;;;;4995511;28;20936;-62
2022/04/13 04:52:17;;;;;;;8.47;6.10;;;7.20;99.90;;;;;;4997510;28;20442;-62
2022/04/13 04:54:43;;;;;;;9.07;5.90;;;7.20;99.90;;;;;;4990065;28;22770;-62
2022/04/13 04:57:08;;;;;;;7.87;5.50;;;7.10;99.90;;;;;;4994672;28;20187;-62
2022/04/13 04:59:35;;;;;;;10.77;5.77;;;7.10;99.90;;;;;;4996969;28;20184;-62
2022/04/13 05:02:00;;;;;;;8.87;5.73;;;7.10;99.90;;;;;;4999804;28;20708;-62
2022/04/13 05:04:26;;;;;;;9.43;6.33;;;7.10;99.90;;;;;;5007772;28;20448;-62
2022/04/13 05:06:52;;;;;;;8.33;6.43;;;7.20;99.90;;;;;;5004367;28;20240;-62
2022/04/13 05:09:18;;;;;;;8.93;6.17;;;7.10;99.90;;;;;;5004460;28;20191;-62
2022/04/13 05:11:45;;;;;;;8.47;6.10;;;7.20;99.90;;;;;;4995479;28;20180;-62
2022/04/13 05:14:10;;;;;;;9.67;5.57;;;7.20;99.90;;;;;;5006265;28;20453;-62
2022/04/13 05:16:36;;;;;;;7.50;5.17;;;7.20;99.90;;;;;;4999204;28;20427;-61
2022/04/13 05:19:02;;;;;;;11.47;5.30;;;7.20;99.90;;;;;;5005119;28;20175;-62
2022/04/13 05:21:28;;;;;;;9.00;5.77;;;7.20;99.90;;;;;;4991551;28;20201;-61
2022/04/13 05:23:53;;;;;;;8.00;5.77;;;7.20;99.90;;;;;;5013813;28;20262;-61
2022/04/13 05:26:19;;;;;;;7.60;5.80;;;7.20;99.90;;;;;;4998149;28;20176;-62
2022/04/13 05:28:47;;;;;;;10.63;6.03;;;7.30;99.90;;;;;;5005881;28;20195;-62
2022/04/13 05:31:13;;;;;;;8.03;5.57;;;7.30;99.90;;;;;;4983559;28;20332;-61
2022/04/13 05:33:39;;;;;;;13.90;6.63;;;7.30;99.90;;;;;;5010444;28;20432;-63
2022/04/13 05:36:05;;;;;;;14.23;6.17;;;7.40;99.90;;;;;;4981376;28;20197;-62
2022/04/13 05:38:31;;;;;;;8.73;6.30;;;7.40;99.90;;;;;;5009899;28;20676;-62
2022/04/13 05:40:56;;;;;;;10.80;7.20;;;7.50;99.90;;;;;;5006002;28;20431;-62
2022/04/13 05:43:22;;;;;;;14.57;6.30;;;7.50;99.90;;;;;;5000393;28;20185;-62
2022/04/13 05:45:48;;;;;;;16.33;7.03;;;7.50;99.90;;;;;;5009113;28;20594;-62
2022/04/13 05:48:13;;;;;;;18.40;6.73;;;7.60;99.90;;;;;;5007434;28;20623;-63
2022/04/13 05:50:39;;;;;;;11.77;7.27;;;7.60;99.90;;;;;;5012247;28;20189;-62
2022/04/13 05:53:05;;;;;;;12.03;7.00;;;7.70;99.90;;;;;;4997949;28;20183;-63
2022/04/13 05:55:30;;;;;;;17.50;7.23;;;7.70;99.90;;;;;;4994252;28;20247;-62
2022/04/13 05:57:57;;;;;;;13.00;6.90;;;7.80;99.90;;;;;;5007234;28;20173;-62
2022/04/13 06:00:23;;;;;;;10.50;7.00;;;7.80;99.90;;;;;;4999283;28;20185;-62
2022/04/13 06:02:48;;;;;;;9.57;6.33;;;7.90;99.90;;;;;;4999671;28;20453;-65
2022/04/13 06:05:14;;;;;;;11.80;7.00;;;8.00;99.90;;;;;;4989634;28;20200;-62
2022/04/13 06:07:41;;;;;;;10.43;7.30;;;8.10;99.90;;;;;;5007350;28;20196;-63
2022/04/13 06:10:08;;;;;;;12.63;6.97;;;8.20;99.90;;;;;;4993966;28;20185;-62
2022/04/13 06:12:34;;;;;;;16.97;7.37;;;8.20;99.90;;;;;;4999152;28;20430;-63
2022/04/13 06:15:04;;;;;;;10.00;6.70;;;8.30;99.90;;;;;;5002786;28;20443;-62
2022/04/13 06:17:30;;;;;;;10.80;6.17;;;8.30;99.90;;;;;;4995680;28;20428;-62
2022/04/13 06:19:56;;;;;;;9.80;6.30;;;8.30;99.90;;;;;;4996476;28;20958;-63
2022/04/13 06:22:21;;;;;;;14.60;6.20;;;8.40;99.90;;;;;;5000823;28;20427;-63
2022/04/13 06:24:51;;;;;;;10.27;5.67;;;8.50;99.90;;;;;;5004591;28;20943;-64
2022/04/13 06:27:20;;;;;;;11.53;6.03;;;8.60;99.90;;;;;;5014360;28;20213;-63
2022/04/13 06:29:46;;;;;;;8.70;5.43;;;8.70;99.90;;;;;;4999599;28;20428;-63
2022/04/13 06:32:13;;;;;;;9.70;6.27;;;8.80;99.90;;;;;;5003709;28;20458;-62
2022/04/13 06:34:39;;;;;;;15.17;6.43;;;8.80;99.90;;;;;;4991772;28;20875;-63
2022/04/13 06:37:05;;;;;;;8.37;5.63;;;8.90;99.90;;;;;;4987458;28;20514;-63
2022/04/13 06:39:31;;;;;;;13.23;7.23;;;9.00;99.90;;;;;;5007289;28;20200;-61
2022/04/13 06:41:56;;;;;;;12.90;7.70;;;9.10;99.90;;;;;;5018050;28;20450;-63
2022/04/13 06:44:22;;;;;;;9.53;5.93;;;9.20;99.90;;;;;;4993998;28;20251;-64
2022/04/13 06:46:48;;;;;;;12.37;6.10;;;9.30;99.90;;;;;;5002657;28;20789;-62
2022/04/13 06:49:13;;;;;;;12.57;7.03;;;9.40;99.90;;;;;;5004831;28;20173;-63
2022/04/13 06:51:39;;;;;;;9.50;5.83;;;9.50;99.90;;;;;;5004404;28;20231;-62
2022/04/13 06:54:05;;;;;;;7.57;5.37;;;9.60;99.90;;;;;;5005599;28;20673;-62
2022/04/13 06:56:32;;;;;;;13.70;5.10;;;9.70;99.90;;;;;;5014165;28;20207;-63
2022/04/13 06:58:58;;;;;;;8.30;5.37;;;9.80;99.90;;;;;;5006452;28;20439;-62
2022/04/13 07:01:24;;;;;;;7.80;4.33;;;9.90;99.90;;;;;;4995567;28;21309;-63
2022/04/13 07:03:50;;;;;;;9.17;6.43;;;10.00;99.90;;;;;;5008217;28;20438;-62
2022/04/13 07:06:16;;;;;;;14.07;5.90;;;10.10;99.90;;;;;;5013141;28;20187;-62
2022/04/13 07:08:42;;;;;;;9.10;5.73;;;10.20;99.90;;;;;;5005555;28;20259;-62
2022/04/13 07:11:07;;;;;;;12.80;5.03;;;10.30;99.90;;;;;;5008442;28;20172;-63
2022/04/13 07:13:33;;;;;;;10.13;5.27;;;10.40;99.90;;;;;;5013155;28;20452;-62
2022/04/13 07:15:59;;;;;;;16.77;5.10;;;10.50;99.90;;;;;;5008083;28;20192;-62
2022/04/13 07:18:25;;;;;;;11.13;5.70;;;10.60;99.90;;;;;;5009343;28;20177;-63
2022/04/13 07:20:51;;;;;;;7.07;5.20;;;10.70;99.90;;;;;;5006097;28;20645;-63
2022/04/13 07:23:16;;;;;;;8.87;4.80;;;10.80;99.70;;;;;;5008130;28;20427;-62
2022/04/13 07:25:42;;;;;;;10.73;5.43;;;10.90;97.10;;;;;;5006572;28;20685;-63
2022/04/13 07:28:08;;;;;;;13.83;5.50;;;11.00;96.80;;;;;;5009658;28;20283;-62
2022/04/13 07:30:33;;;;;;;11.63;6.67;;;11.10;96.30;;;;;;5015097;28;20181;-62
2022/04/13 07:33:01;;;;;;;15.57;7.20;;;11.30;96.80;;;;;;5010049;28;20278;-63
2022/04/13 07:35:28;;;;;;;16.90;6.30;;;11.50;95.70;;;;;;4985882;28;20251;-63
2022/04/13 07:37:54;;;;;;;19.40;7.30;;;11.70;95.30;;;;;;5009748;28;20475;-62
2022/04/13 07:40:20;;;;;;;18.93;6.40;;;11.80;94.80;;;;;;5007410;28;20517;-63
2022/04/13 07:42:46;;;;;;;14.20;7.50;;;12.00;94.10;;;;;;4991234;28;20172;-63
2022/04/13 07:45:12;;;;;;;14.50;6.87;;;12.10;92.20;;;;;;5009051;28;20203;-63
2022/04/13 07:47:38;;;;;;;19.47;7.30;;;12.30;91.40;;;;;;5018840;28;20201;-63
2022/04/13 07:50:06;;;;;;;25.30;7.17;;;12.40;90.30;;;;;;5010274;28;20498;-62
2022/04/13 07:52:34;;;;;;;10.83;6.97;;;12.50;90.00;;;;;;4988170;28;20460;-62
2022/04/13 07:54:59;;;;;;;15.30;6.70;;;12.70;89.40;;;;;;5005064;28;20442;-62
2022/04/13 07:57:25;;;;;;;13.23;6.63;;;12.80;89.10;;;;;;5010467;28;20427;-62
2022/04/13 07:59:51;;;;;;;9.03;5.63;;;13.00;86.70;;;;;;5007971;28;20226;-62
2022/04/13 08:02:20;;;;;;;13.87;6.27;;;13.10;83.80;;;;;;4999065;28;20223;-62
2022/04/13 08:04:46;;;;;;;15.93;5.73;;;13.30;82.70;;;;;;5005145;28;20691;-62
2022/04/13 08:07:13;;;;;;;16.33;6.10;;;13.40;81.60;;;;;;5013608;28;20461;-62
2022/04/13 08:09:39;;;;;;;14.50;6.20;;;13.50;79.10;;;;;;5012367;28;20444;-62
2022/04/13 08:12:05;;;;;;;17.17;6.83;;;13.60;77.20;;;;;;4997232;28;20519;-61
2022/04/13 08:14:31;;;;;;;13.03;6.60;;;13.70;74.80;;;;;;5004789;28;20543;-63
2022/04/13 08:16:57;;;;;;;20.43;5.93;;;13.80;73.60;;;;;;5002375;28;20289;-62
2022/04/13 08:19:23;;;;;;;8.70;5.87;;;13.90;72.50;;;;;;4979314;28;20231;-63
2022/04/13 08:21:49;;;;;;;16.70;5.87;;;14.00;70.80;;;;;;5005113;28;20438;-62
2022/04/13 08:24:17;;;;;;;20.43;5.70;;;14.10;69.40;;;;;;5004640;28;20462;-63
2022/04/13 08:26:44;;;;;;;13.10;6.20;;;14.30;68.00;;;;;;5001028;28;20434;-64
2022/04/13 08:29:10;;;;;;;14.00;6.20;;;14.40;66.60;;;;;;5001306;28;20493;-63
2022/04/13 08:31:36;;;;;;;6.80;4.80;;;14.40;66.00;;;;;;5002722;28;20932;-62
2022/04/13 08:34:02;;;;;;;10.93;4.70;;;14.60;65.90;;;;;;5005636;28;20506;-62
2022/04/13 08:36:28;;;;;;;7.00;4.53;;;14.70;66.20;;;;;;5004966;28;20506;-62
2022/04/13 08:38:53;;;;;;;10.80;4.77;;;14.90;66.10;;;;;;5008470;28;20610;-62
2022/04/13 08:41:43;;;;;;;9.33;5.20;;;15.10;65.80;;;;;;5001441;28;20653;-62
2022/04/13 08:44:17;;;;;;;10.23;4.87;;;15.20;65.60;;;;;;5001142;28;20657;-63
2022/04/13 08:46:45;;;;;;;10.87;4.33;;;15.40;64.70;;;;;;5004770;28;20442;-63
2022/04/13 08:49:14;;;;;;;5.97;4.30;;;15.60;64.00;;;;;;5005386;28;20455;-62
2022/04/13 08:51:40;;;;;;;11.33;3.90;;;15.70;61.50;;;;;;4996237;28;20839;-62
2022/04/13 08:54:19;;;;;;;9.10;4.53;;;15.80;61.00;;;;;;4983284;28;20427;-63
2022/04/13 08:56:48;;;;;;;8.30;3.90;;;16.00;61.10;;;;;;4993813;28;20418;-62
2022/04/13 08:59:35;;;;;;;4.50;3.37;;;16.20;60.70;;;;;;5003314;28;20427;-63
2022/04/13 09:02:26;;;;;;;7.47;3.37;;;16.30;59.50;;;;;;5000904;28;20435;-58
2022/04/13 09:04:56;;;;;;;16.23;3.47;;;16.50;59.30;;;;;;5006890;28;20451;-57
2022/04/13 09:07:23;;;;;;;4.47;2.83;;;16.80;58.90;;;;;;4996915;28;20471;-57
2022/04/13 09:09:53;;;;;;;4.83;3.87;;;17.00;58.00;;;;;;5002283;28;21078;-57
2022/04/13 09:12:19;;;;;;;6.80;3.97;;;17.20;57.90;;;;;;4999359;28;20419;-57
2022/04/13 09:14:45;;;;;;;4.93;4.00;;;17.40;57.00;;;;;;5003786;28;20454;-58
2022/04/13 09:17:11;;;;;;;9.90;3.70;;;17.60;56.50;;;;;;4993969;28;20944;-63
2022/04/13 09:19:38;;;;;;;5.97;3.10;;;17.80;55.10;;;;;;4984979;28;20326;-63
2022/04/13 09:22:04;;;;;;;6.57;3.23;;;17.90;54.90;;;;;;4998765;28;20419;-63
2022/04/13 09:24:32;;;;;;;5.93;3.10;;;18.10;54.60;;;;;;4996737;28;20466;-63
2022/04/13 09:26:59;;;;;;;4.30;2.80;;;18.20;54.60;;;;;;4976532;28;20428;-62
2022/04/13 09:29:25;;;;;;;4.87;2.40;;;18.30;53.30;;;;;;4993017;28;20423;-62
2022/04/13 09:31:51;;;;;;;5.37;2.87;;;18.50;52.70;;;;;;4997440;28;20456;-62
2022/04/13 09:34:17;;;;;;;4.70;3.03;;;18.60;52.50;;;;;;4997288;28;20451;-62
2022/04/13 09:36:44;;;;;;;7.60;2.90;;;18.70;50.40;;;;;;4996349;28;20432;-62
2022/04/13 09:39:13;;;;;;;3.43;2.57;;;18.80;49.80;;;;;;4996267;28;20694;-63
2022/04/13 09:41:39;;;;;;;5.70;2.63;;;18.90;50.00;;;;;;4993778;28;20839;-62
2022/04/13 09:44:18;;;;;;;3.30;2.13;;;18.90;50.70;;;;;;4992581;28;20536;-63
2022/04/13 09:46:44;;;;;;;7.50;2.50;;;19.10;50.60;;;;;;4995960;28;20458;-63
2022/04/13 09:49:12;;;;;;;4.53;1.97;;;19.30;49.90;;;;;;4994337;28;20474;-63
2022/04/13 09:51:40;;;;;;;5.23;2.17;;;19.40;48.90;;;;;;4994511;28;20424;-63
2022/04/13 09:54:15;;;;;;;5.93;2.10;;;19.40;48.20;;;;;;4994170;28;20953;-63
2022/04/13 09:56:49;;;;;;;9.20;2.93;;;19.60;48.60;;;;;;4991510;28;20431;-64
2022/04/13 09:59:31;;;;;;;7.07;2.50;;;19.70;49.20;;;;;;4996668;28;20904;-64
2022/04/13 10:01:57;;;;;;;3.23;2.10;;;19.90;48.50;;;;;;4999476;28;20442;-64
2022/04/13 10:04:32;;;;;;;2.27;2.07;;;20.10;47.60;;;;;;4999507;28;20463;-64
2022/04/13 10:07:18;;;;;;;2.30;2.10;;;20.20;47.10;;;;;;4996873;28;20842;-63
2022/04/13 10:09:44;;;;;;;5.53;2.00;;;20.30;46.40;;;;;;4998296;28;20445;-63
2022/04/13 10:12:10;;;;;;;6.33;2.10;;;20.30;46.00;;;;;;4995981;28;20428;-63
2022/04/13 10:14:35;;;;;;;5.03;1.90;;;20.40;45.20;;;;;;4994631;28;20299;-66
2022/04/13 10:17:16;;;;;;;2.40;2.00;;;20.50;45.30;;;;;;4985778;28;20430;-62
2022/04/13 10:19:53;;;;;;;5.60;1.90;;;20.50;42.80;;;;;;5002069;28;20185;-63
2022/04/13 10:22:19;;;;;;;2.63;1.53;;;20.60;42.70;;;;;;4982532;28;20427;-63
2022/04/13 10:24:44;;;;;;;4.30;1.63;;;20.70;44.20;;;;;;5001925;28;20469;-63
2022/04/13 10:27:12;;;;;;;3.47;1.77;;;20.80;44.30;;;;;;4997452;28;20189;-63
2022/04/13 10:29:40;;;;;;;5.40;1.70;;;20.90;43.00;;;;;;4999109;28;20665;-63
2022/04/13 10:32:25;;;;;;;4.47;1.50;;;21.00;41.50;;;;;;4996903;28;20494;-63
2022/04/13 10:34:55;;;;;;;1.63;1.40;;;21.10;41.20;;;;;;4998729;28;20451;-63
2022/04/13 10:37:23;;;;;;;2.67;1.73;;;21.20;40.20;;;;;;4993349;28;20435;-64
2022/04/13 10:39:49;;;;;;;5.60;1.50;;;21.30;40.00;;;;;;5004414;28;20534;-63
2022/04/13 10:42:19;;;;;;;3.00;1.80;;;21.40;40.10;;;;;;4999156;28;20432;-62
2022/04/13 10:44:58;;;;;;;3.60;1.90;;;21.50;40.80;;;;;;5001980;28;20970;-63
2022/04/13 10:47:47;;;;;;;2.90;1.60;;;21.70;40.20;;;;;;4997155;28;20459;-63
2022/04/13 10:50:14;;;;;;;3.67;1.33;;;21.80;39.70;;;;;;4996443;28;20463;-64
2022/04/13 10:52:49;;;;;;;4.80;1.83;;;21.90;39.70;;;;;;4995083;28;20457;-63
2022/04/13 10:55:19;;;;;;;1.70;1.60;;;22.00;37.80;;;;;;4993453;28;20530;-63
2022/04/13 10:58:03;;;;;;;3.50;1.60;;;22.10;38.00;;;;;;4994615;28;20439;-63
2022/04/13 11:00:34;;;;;;;3.23;1.70;;;22.10;38.30;;;;;;4995661;28;20789;-62
2022/04/13 11:03:04;;;;;;;3.97;1.70;;;22.20;38.40;;;;;;4991965;28;20461;-63
2022/04/13 11:05:31;;;;;;;3.30;1.83;;;22.20;38.20;;;;;;4990898;28;21293;-62
2022/04/13 11:08:08;;;;;;;6.23;1.43;;;22.30;36.20;;;;;;4978964;28;20455;-61
2022/04/13 11:10:35;;;;;;;6.10;1.50;;;22.30;37.90;;;;;;4980431;28;20435;-61
2022/04/13 11:13:01;;;;;;;6.40;1.50;;;22.50;37.60;;;;;;4981794;28;20432;-62
2022/04/13 11:15:50;;;;;;;3.83;1.90;;;22.50;36.30;;;;;;4995931;28;20463;-61
2022/04/13 11:18:20;;;;;;;9.17;1.70;;;22.60;36.60;;;;;;4995678;28;20194;-61
2022/04/13 11:21:08;;;;;;;7.20;2.10;;;22.70;37.70;;;;;;4994883;28;20438;-62
2022/04/13 11:23:54;;;;;;;5.47;2.10;;;22.90;36.80;;;;;;4986692;28;20495;-62
2022/04/13 11:26:34;;;;;;;6.57;1.63;;;23.00;37.10;;;;;;4993084;28;20436;-64
2022/04/13 11:29:09;;;;;;;5.13;1.80;;;23.20;36.60;;;;;;4993837;28;20462;-63
2022/04/13 11:32:00;;;;;;;4.23;1.77;;;23.30;36.80;;;;;;4977036;28;20439;-62
2022/04/13 11:34:42;;;;;;;6.57;2.10;;;23.40;36.10;;;;;;4991577;28;20960;-63
2022/04/13 11:37:24;;;;;;;2.30;1.47;;;23.60;35.30;;;;;;4995864;28;20799;-63
2022/04/13 11:39:51;;;;;;;6.73;1.87;;;23.70;36.00;;;;;;4991913;28;20439;-63
2022/04/13 11:42:26;;;;;;;8.73;2.10;;;23.90;36.30;;;;;;4992021;28;21033;-62
2022/04/13 11:45:02;;;;;;;8.20;1.77;;;24.00;35.40;;;;;;4992975;28;20462;-61
2022/04/13 11:47:43;;;;;;;7.10;1.73;;;24.10;36.00;;;;;;4994884;28;20459;-62
2022/04/13 11:50:18;;;;;;;8.73;1.93;;;24.30;35.20;;;;;;4980856;28;20436;-61
2022/04/13 11:52:58;;;;;;;7.60;2.20;;;24.40;35.40;;;;;;4996296;28;20449;-62
2022/04/13 11:55:26;;;;;;;15.90;3.20;;;24.50;35.40;;;;;;4994524;28;20826;-60
2022/04/13 11:57:57;;;;;;;5.47;1.70;;;24.60;34.40;;;;;;4995005;28;20439;-61
2022/04/13 12:01:00;;;;;;;5.10;2.00;;;24.60;33.20;;;;;;4995425;28;20471;-62
2022/04/13 12:03:30;;;;;;;6.63;1.90;;;24.70;34.70;;;;;;4985719;28;20446;-60
2022/04/13 12:05:57;;;;;;;4.47;1.70;;;24.80;35.40;;;;;;5007576;28;20500;-62
2022/04/13 12:08:32;;;;;;;3.80;1.67;;;25.00;35.70;;;;;;5007369;28;20470;-62
2022/04/13 12:11:16;;;;;;;6.03;1.60;;;25.10;35.80;;;;;;4990811;28;20975;-61
2022/04/13 12:13:51;;;;;;;4.37;1.63;;;25.20;34.70;;;;;;4992862;28;20453;-62
2022/04/13 12:16:25;;;;;;;5.00;1.70;;;25.30;34.70;;;;;;4993866;28;20883;-62
2022/04/13 12:18:52;;;;;;;7.40;1.70;;;25.30;34.40;;;;;;4988342;28;20489;-61
2022/04/13 12:21:24;;;;;;;6.77;1.87;;;25.40;34.40;;;;;;4995492;28;20435;-61
2022/04/13 12:23:50;;;;;;;9.80;1.83;;;25.50;35.20;;;;;;4999992;28;20809;-60
2022/04/13 12:26:17;;;;;;;2.60;1.80;;;25.60;34.90;;;;;;5006654;28;20470;-60
2022/04/13 12:28:43;;;;;;;3.30;1.90;;;25.60;34.40;;;;;;5001589;28;20471;-60
2022/04/13 12:31:11;;;;;;;3.73;1.87;;;25.70;34.20;;;;;;5003575;28;21161;-60
2022/04/13 12:33:39;;;;;;;3.03;1.43;;;25.80;34.10;;;;;;5002772;28;20191;-60
2022/04/13 12:36:07;;;;;;;8.57;1.90;;;25.90;32.90;;;;;;4999683;28;20473;-61
2022/04/13 12:38:34;;;;;;;7.27;1.70;;;25.90;32.80;;;;;;4999513;28;20837;-61
2022/04/13 12:41:03;;;;;;;6.90;2.10;;;26.10;33.30;;;;;;5001544;28;20431;-61
2022/04/13 12:43:29;;;;;;;10.20;1.60;;;26.10;33.00;;;;;;5000391;28;20436;-62
2022/04/13 12:45:55;;;;;;;2.60;1.57;;;26.30;32.70;;;;;;4994923;28;20456;-61
2022/04/13 12:48:25;;;;;;;7.00;2.03;;;26.30;33.10;;;;;;5013410;28;20927;-61
2022/04/13 12:50:59;;;;;;;5.30;1.60;;;26.30;33.10;;;;;;4987944;28;20468;-62
2022/04/13 12:53:26;;;;;;;9.97;1.77;;;25.90;32.00;;;;;;4992325;28;20499;-61
2022/04/13 12:55:56;;;;;;;4.73;1.83;;;25.50;32.30;;;;;;4988983;28;20458;-61
2022/04/13 12:58:23;;;;;;;6.87;2.17;;;25.30;32.50;;;;;;4994521;28;21126;-62